FCBB/BZV METAR and TAF weather

Enter ICAO airport designator
Station Type Date Time Source
FCBB METAR 2019/08/25 02:00 UTC NOAA

FCBB 250200Z 22003KT 7000 NSC 20/18 Q1015 NOSIG


Station Type Date Time Source
FCBB Decoded METAR 2019/08/25 02:00 UTC NOAA

Station name not available
Aug 24, 2019 - 10:00 PM EDT / 2019.08.25 0200 UTC
Wind: from the SW (220 degrees) at 3 MPH (3 KT):0
Visibility: 4 mile(s):0
Temperature: 68 F (20 C)
Dew Point: 64 F (18 C)
Relative Humidity: 88%
Pressure (altimeter): 29.97 in. Hg (1015 hPa)
ob: FCBB 250200Z 22003KT 7000 NSC 20/18 Q1015 NOSIG
cycle: 2

Station Type Date Time Source
FCBB TAF 2019/08/24 18:06 UTC NOAA

TAF TAF FCBB 241700Z 2418/2524 28004KT 8000 FEW023 PROB30 2506/2508 4000 BR

Example: see airport list